Capitol Logistics 2156

Operating for AJT



KBWI
Baltimore/Washington International Thurgood Marshall Airport
Baltimore, Maryland
KCVG
Cincinnati/Northern Kentucky International Airport
Covington, Kentucky

Activity Log

Date Flight Route Aircraft Duration
04/03/2021 CPX2156 TERPZ7 OTTTO COLNS GAVNN5 B752 1h 35m

Route Details

Aircraft Information
Primary: Boeing 767-300BDSF
Backup: Boeing 757-200SF
Route Data
Distance: 373nm
Duration: 1h 14m
Recm'd Route: TERPZ7 OTTTO COLNS GAVNN5
Origin Wx: KBWI 141925Z 20003KT 2 1/2SM -RA BR SCT025 BKN065 OVC080 15/12 A3000 RMK AO2 P0002 T01500117
Dest. Wx: KCVG 141852Z 22006KT 10SM FEW041 BKN130 BKN250 14/03 A3005 RMK AO2 SLP171 T01440033
Notes: